CLMO2: North Canadian River

                                SHEF ID:       CLMO2     North Canadian River near Calume
STATION TYPE:
Regulating: Stage = 12.00, Flow = 1420

STAGE STAGE(2) RIV-FLOW WTR-TEMP DIS-OXY PH CONDUCT BAT-LOAD
ft ft cfs F mg/l su umho/cm volt
Ccp-Rev Ccp-Rev Ccp-Rev Ccp-Rev Ccp-Rev Ccp-Rev Ccp-Rev Ccp-Rev
(America/Chicago)
07/17 00:00 3.09 ---- 5 80.55 4.75 8.23 1175 12.47
07/17 01:00 3.09 ---- 5 79.59 4.70 8.15 1174 12.50
07/17 02:00 3.09 ---- 5 78.76 4.77 8.09 1168 12.43
07/17 03:00 3.08 ---- 5 78.01 4.89 8.06 1183 12.50
07/17 04:00 3.08 ---- 5 77.36 5.02 8.02 1197 12.37
07/17 05:00 3.08 ---- 5 76.84 5.07 8.00 1213 12.42
07/17 06:00 3.08 ---- 5 76.41 5.14 7.98 1228 12.37
07/17 07:00 3.08 ---- 5 76.15 5.17 7.96 1239 12.40
07/17 08:00 3.09 ---- 5 76.12 5.44 7.96 1249 12.36
07/17 09:00 3.09 ---- 5 76.28 6.09 8.00 1259 12.37
07/17 10:00 3.09 ---- 5 76.57 6.88 8.06 1254 12.37
07/17 11:00 3.08 ---- 5 77.31 7.70 8.14 1257 12.53
07/17 12:00 3.09 ---- 5 79.09 8.56 8.23 1274 12.45
07/17 13:00 3.09 ---- 5 82.11 9.80 8.31 1286 12.63
07/17 14:00 3.08 ---- 5 86.25 10.60 8.40 1295 12.90
07/17 15:00 3.08 ---- 5 88.99 10.99 8.48 1309 12.93
07/17 16:00 3.07 ---- 4 91.45 11.08 8.55 1298 12.86
07/17 17:00 3.07 ---- 4 91.62 11.03 8.57 1308 12.80
07/17 18:00 3.07 ---- 4 89.53 10.00 8.59 1321 12.63
07/17 19:00 3.07 ---- 4 87.51 8.74 8.56 1327 12.66
07/17 20:00 3.07 ---- 4 85.21 7.47 8.52 1343 12.50
07/17 21:00 3.08 ---- 5 83.79 6.31 8.47 1364 12.59
07/17 22:00 3.08 ---- 5 82.42 5.30 8.38 1368 12.52
07/17 23:00 3.08 ---- 5 81.18 4.95 8.32 1375 12.50
Data processed at Sat 18Jul2026 04:25 GMT

NOTICE: If you are parsing this page

Please convert to using our Data API. Starting early 2026 we will be migrating to: https://water.usace.army.mil with modern pages rendered in JavaScript. When this migration completes you will no longer be able to scrape this page! CWMSDataAPI (CDA)

Timeseries IDs (TSIDs)

TSIDs used from left to right in the data table
CALU.Stage.Inst.1Hour.0.Ccp-Rev
CALU.Stage-Alt.Inst.1Hour.0.Ccp-Rev
CALU.Flow.Inst.1Hour.0.Ccp-Rev
CALU.Temp-Water.Inst.1Hour.0.Ccp-Rev
CALU.Conc-DO.Inst.1Hour.0.Ccp-Rev
CALU.pH.Inst.1Hour.0.Ccp-Rev
CALU.Cond-Water.Inst.1Hour.0.Ccp-Rev
CALU.Volt-Battery Load.Inst.1Hour.0.Ccp-Rev

                            

All information presented herein is the property of the government of the United States of America and may be revised or deleted at any time without prior notice. Dissemination of this information without the expressed written consent of the Public Affairs Office, Tulsa District U.S. Army Corps of Engineers is strictly prohibited. These data are gathered electronically and, as presented, have NOT undergone any form of quality control. These data are NOT guaranteed to be valid or correct.